sensor_id;sensor_type;location;lat;lon;timestamp;temperature;humidity
11762;DHT22;5938;47.098;15.474;2022-12-20T00:00:15;-1.30;99.90
11762;DHT22;5938;47.098;15.474;2022-12-20T00:04:20;-1.40;99.90
11762;DHT22;5938;47.098;15.474;2022-12-20T00:08:24;-1.30;99.90
11762;DHT22;5938;47.098;15.474;2022-12-20T00:12:29;-1.30;99.90
11762;DHT22;5938;47.098;15.474;2022-12-20T00:16:37;-1.40;99.90
11762;DHT22;5938;47.098;15.474;2022-12-20T00:20:45;-1.30;99.90
11762;DHT22;5938;47.098;15.474;2022-12-20T00:24:53;-1.30;99.90
11762;DHT22;5938;47.098;15.474;2022-12-20T00:29:01;-1.40;99.90
11762;DHT22;5938;47.098;15.474;2022-12-20T00:33:07;-1.10;99.90
11762;DHT22;5938;47.098;15.474;2022-12-20T00:37:13;-1.30;99.90
11762;DHT22;5938;47.098;15.474;2022-12-20T00:41:21;-1.40;99.90
11762;DHT22;5938;47.098;15.474;2022-12-20T00:45:27;-1.40;99.90
11762;DHT22;5938;47.098;15.474;2022-12-20T00:49:33;-1.40;99.90
11762;DHT22;5938;47.098;15.474;2022-12-20T00:53:39;-1.30;99.90
11762;DHT22;5938;47.098;15.474;2022-12-20T00:57:45;-1.30;99.90
11762;DHT22;5938;47.098;15.474;2022-12-20T01:01:53;-1.30;99.90
11762;DHT22;5938;47.098;15.474;2022-12-20T01:06:03;-1.20;99.90
11762;DHT22;5938;47.098;15.474;2022-12-20T01:10:11;-1.30;99.90
11762;DHT22;5938;47.098;15.474;2022-12-20T01:14:21;-1.50;99.90
11762;DHT22;5938;47.098;15.474;2022-12-20T01:18:30;-1.40;99.90
11762;DHT22;5938;47.098;15.474;2022-12-20T01:22:37;-1.40;99.90
11762;DHT22;5938;47.098;15.474;2022-12-20T01:26:48;-1.30;99.90
11762;DHT22;5938;47.098;15.474;2022-12-20T01:30:52;-1.40;99.90
11762;DHT22;5938;47.098;15.474;2022-12-20T01:34:59;-1.50;99.90
11762;DHT22;5938;47.098;15.474;2022-12-20T01:39:04;-1.30;99.90
11762;DHT22;5938;47.098;15.474;2022-12-20T01:43:11;-1.40;99.90
11762;DHT22;5938;47.098;15.474;2022-12-20T01:47:18;-1.30;99.90
11762;DHT22;5938;47.098;15.474;2022-12-20T01:51:25;-1.30;99.90
11762;DHT22;5938;47.098;15.474;2022-12-20T01:55:32;-1.30;99.90
11762;DHT22;5938;47.098;15.474;2022-12-20T01:59:41;-1.40;99.90
11762;DHT22;5938;47.098;15.474;2022-12-20T02:03:49;-1.60;99.90
11762;DHT22;5938;47.098;15.474;2022-12-20T02:07:59;-1.50;99.90
11762;DHT22;5938;47.098;15.474;2022-12-20T02:12:12;-1.50;99.90
11762;DHT22;5938;47.098;15.474;2022-12-20T02:16:22;-1.40;99.90
11762;DHT22;5938;47.098;15.474;2022-12-20T02:25:37;-1.60;99.90
11762;DHT22;5938;47.098;15.474;2022-12-20T02:30:04;-1.50;99.90
11762;DHT22;5938;47.098;15.474;2022-12-20T02:34:21;-1.60;99.90
11762;DHT22;5938;47.098;15.474;2022-12-20T02:38:34;-1.40;99.90
11762;DHT22;5938;47.098;15.474;2022-12-20T02:42:42;-1.40;99.90
11762;DHT22;5938;47.098;15.474;2022-12-20T02:46:53;-1.50;99.90
11762;DHT22;5938;47.098;15.474;2022-12-20T02:51:01;-1.40;99.90
11762;DHT22;5938;47.098;15.474;2022-12-20T02:55:07;-1.40;99.90
11762;DHT22;5938;47.098;15.474;2022-12-20T02:59:13;-1.50;99.90
11762;DHT22;5938;47.098;15.474;2022-12-20T03:03:20;-1.60;99.90
11762;DHT22;5938;47.098;15.474;2022-12-20T03:07:27;-1.70;99.90
11762;DHT22;5938;47.098;15.474;2022-12-20T03:11:32;-1.50;99.90
11762;DHT22;5938;47.098;15.474;2022-12-20T03:20:29;-1.40;99.90
11762;DHT22;5938;47.098;15.474;2022-12-20T03:24:34;-1.70;99.90
11762;DHT22;5938;47.098;15.474;2022-12-20T03:28:38;-1.40;99.90
11762;DHT22;5938;47.098;15.474;2022-12-20T03:32:41;-1.60;99.90
11762;DHT22;5938;47.098;15.474;2022-12-20T03:36:46;-1.70;99.90
11762;DHT22;5938;47.098;15.474;2022-12-20T03:40:51;-1.50;99.90
11762;DHT22;5938;47.098;15.474;2022-12-20T03:44:54;-1.40;99.90
11762;DHT22;5938;47.098;15.474;2022-12-20T03:48:58;-1.50;99.90
11762;DHT22;5938;47.098;15.474;2022-12-20T03:53:05;-1.50;99.90
11762;DHT22;5938;47.098;15.474;2022-12-20T03:57:09;-1.90;99.90
11762;DHT22;5938;47.098;15.474;2022-12-20T04:01:18;-1.40;99.90
11762;DHT22;5938;47.098;15.474;2022-12-20T04:05:22;-1.60;99.90
11762;DHT22;5938;47.098;15.474;2022-12-20T04:09:30;-1.40;99.90
11762;DHT22;5938;47.098;15.474;2022-12-20T04:13:34;-1.50;99.90
11762;DHT22;5938;47.098;15.474;2022-12-20T04:17:38;-1.40;99.90
11762;DHT22;5938;47.098;15.474;2022-12-20T04:21:43;-1.40;99.90
11762;DHT22;5938;47.098;15.474;2022-12-20T04:25:49;-1.50;99.90
11762;DHT22;5938;47.098;15.474;2022-12-20T04:29:54;-1.60;99.90
11762;DHT22;5938;47.098;15.474;2022-12-20T04:34:00;-1.50;99.90
11762;DHT22;5938;47.098;15.474;2022-12-20T04:38:05;-1.50;99.90
11762;DHT22;5938;47.098;15.474;2022-12-20T04:42:10;-1.30;99.90
11762;DHT22;5938;47.098;15.474;2022-12-20T04:46:16;-1.40;99.90
11762;DHT22;5938;47.098;15.474;2022-12-20T04:50:21;-1.40;99.90
11762;DHT22;5938;47.098;15.474;2022-12-20T04:54:25;-1.80;99.90
11762;DHT22;5938;47.098;15.474;2022-12-20T04:58:30;-1.50;99.90
11762;DHT22;5938;47.098;15.474;2022-12-20T05:02:33;-1.50;99.90
11762;DHT22;5938;47.098;15.474;2022-12-20T05:06:37;-1.50;99.90
11762;DHT22;5938;47.098;15.474;2022-12-20T05:10:41;-1.50;99.90
11762;DHT22;5938;47.098;15.474;2022-12-20T05:14:46;-1.50;99.90
11762;DHT22;5938;47.098;15.474;2022-12-20T05:18:49;-1.60;99.90
11762;DHT22;5938;47.098;15.474;2022-12-20T05:22:52;-1.50;99.90
11762;DHT22;5938;47.098;15.474;2022-12-20T05:27:13;-1.60;99.90
11762;DHT22;5938;47.098;15.474;2022-12-20T05:31:18;-1.70;99.90
11762;DHT22;5938;47.098;15.474;2022-12-20T05:35:21;-1.60;99.90
11762;DHT22;5938;47.098;15.474;2022-12-20T05:39:25;-1.60;99.90
11762;DHT22;5938;47.098;15.474;2022-12-20T05:43:29;-2.00;99.90
11762;DHT22;5938;47.098;15.474;2022-12-20T05:47:33;-1.60;99.90
11762;DHT22;5938;47.098;15.474;2022-12-20T05:51:39;-1.60;99.90
11762;DHT22;5938;47.098;15.474;2022-12-20T05:55:43;-1.70;99.90
11762;DHT22;5938;47.098;15.474;2022-12-20T05:59:47;-1.80;99.90
11762;DHT22;5938;47.098;15.474;2022-12-20T06:03:52;-1.50;99.90
11762;DHT22;5938;47.098;15.474;2022-12-20T06:07:55;-1.70;99.90
11762;DHT22;5938;47.098;15.474;2022-12-20T06:11:59;-1.60;99.90
11762;DHT22;5938;47.098;15.474;2022-12-20T06:16:03;-1.70;99.90
11762;DHT22;5938;47.098;15.474;2022-12-20T06:20:10;-1.60;99.90
11762;DHT22;5938;47.098;15.474;2022-12-20T06:24:14;-1.50;99.90
11762;DHT22;5938;47.098;15.474;2022-12-20T06:28:17;-1.40;99.90
11762;DHT22;5938;47.098;15.474;2022-12-20T06:32:23;-1.60;99.90
11762;DHT22;5938;47.098;15.474;2022-12-20T06:36:27;-1.90;99.90
11762;DHT22;5938;47.098;15.474;2022-12-20T06:40:31;-1.50;99.90
11762;DHT22;5938;47.098;15.474;2022-12-20T06:44:34;-1.60;99.90
11762;DHT22;5938;47.098;15.474;2022-12-20T06:48:37;-1.60;99.90
11762;DHT22;5938;47.098;15.474;2022-12-20T06:52:42;-1.50;99.90
11762;DHT22;5938;47.098;15.474;2022-12-20T06:56:45;-1.80;99.90
11762;DHT22;5938;47.098;15.474;2022-12-20T07:00:48;-1.50;99.90
11762;DHT22;5938;47.098;15.474;2022-12-20T07:04:52;-1.40;99.90
11762;DHT22;5938;47.098;15.474;2022-12-20T07:08:56;-1.60;99.90
11762;DHT22;5938;47.098;15.474;2022-12-20T07:13:00;-1.40;99.90
11762;DHT22;5938;47.098;15.474;2022-12-20T07:17:04;-1.20;99.90
11762;DHT22;5938;47.098;15.474;2022-12-20T07:21:08;-1.50;99.90
11762;DHT22;5938;47.098;15.474;2022-12-20T07:25:13;-1.50;99.90
11762;DHT22;5938;47.098;15.474;2022-12-20T07:29:17;-1.60;99.90
11762;DHT22;5938;47.098;15.474;2022-12-20T07:33:22;-1.60;99.90
11762;DHT22;5938;47.098;15.474;2022-12-20T07:37:28;-1.40;99.90
11762;DHT22;5938;47.098;15.474;2022-12-20T07:41:33;-1.60;99.90
11762;DHT22;5938;47.098;15.474;2022-12-20T07:45:37;-1.70;99.90
11762;DHT22;5938;47.098;15.474;2022-12-20T07:49:41;-1.50;99.90
11762;DHT22;5938;47.098;15.474;2022-12-20T07:53:47;-1.50;99.90
11762;DHT22;5938;47.098;15.474;2022-12-20T07:58:03;-1.50;99.90
11762;DHT22;5938;47.098;15.474;2022-12-20T08:02:10;-1.60;99.90
11762;DHT22;5938;47.098;15.474;2022-12-20T08:06:16;-1.50;99.90
11762;DHT22;5938;47.098;15.474;2022-12-20T08:10:20;-1.50;99.90
11762;DHT22;5938;47.098;15.474;2022-12-20T08:14:27;-1.40;99.90
11762;DHT22;5938;47.098;15.474;2022-12-20T08:18:31;-1.40;99.90
11762;DHT22;5938;47.098;15.474;2022-12-20T08:22:34;-1.50;99.90
11762;DHT22;5938;47.098;15.474;2022-12-20T08:26:38;-1.50;99.90
11762;DHT22;5938;47.098;15.474;2022-12-20T08:30:43;-1.60;99.90
11762;DHT22;5938;47.098;15.474;2022-12-20T08:34:47;-1.50;99.90
11762;DHT22;5938;47.098;15.474;2022-12-20T08:38:51;-1.40;99.90
11762;DHT22;5938;47.098;15.474;2022-12-20T08:42:55;-1.60;99.90
11762;DHT22;5938;47.098;15.474;2022-12-20T08:47:00;-1.40;99.90
11762;DHT22;5938;47.098;15.474;2022-12-20T08:51:05;-1.30;99.90
11762;DHT22;5938;47.098;15.474;2022-12-20T08:55:09;-1.10;99.90
11762;DHT22;5938;47.098;15.474;2022-12-20T08:59:14;-1.10;99.90
11762;DHT22;5938;47.098;15.474;2022-12-20T09:03:18;-1.10;99.90
11762;DHT22;5938;47.098;15.474;2022-12-20T09:07:22;-1.00;99.90
11762;DHT22;5938;47.098;15.474;2022-12-20T09:11:26;-1.10;99.90
11762;DHT22;5938;47.098;15.474;2022-12-20T09:15:29;-1.00;99.90
11762;DHT22;5938;47.098;15.474;2022-12-20T09:19:35;-1.20;99.90
11762;DHT22;5938;47.098;15.474;2022-12-20T09:23:39;-1.10;99.90
11762;DHT22;5938;47.098;15.474;2022-12-20T09:27:42;-1.10;99.90
11762;DHT22;5938;47.098;15.474;2022-12-20T09:31:45;-0.90;99.90
11762;DHT22;5938;47.098;15.474;2022-12-20T09:35:52;-0.90;99.90
11762;DHT22;5938;47.098;15.474;2022-12-20T09:39:56;-1.00;99.90
11762;DHT22;5938;47.098;15.474;2022-12-20T09:44:03;-0.70;99.90
11762;DHT22;5938;47.098;15.474;2022-12-20T09:48:13;-0.90;99.90
11762;DHT22;5938;47.098;15.474;2022-12-20T09:52:38;-0.90;99.90
11762;DHT22;5938;47.098;15.474;2022-12-20T09:56:52;-0.70;99.90
11762;DHT22;5938;47.098;15.474;2022-12-20T10:01:12;-1.00;99.90
11762;DHT22;5938;47.098;15.474;2022-12-20T10:05:31;-0.90;99.90
11762;DHT22;5938;47.098;15.474;2022-12-20T10:09:53;-1.10;99.90
11762;DHT22;5938;47.098;15.474;2022-12-20T10:14:05;-1.00;99.90
11762;DHT22;5938;47.098;15.474;2022-12-20T10:18:33;-1.10;99.90
11762;DHT22;5938;47.098;15.474;2022-12-20T10:22:45;-0.90;99.90
11762;DHT22;5938;47.098;15.474;2022-12-20T10:26:53;-1.10;99.90
11762;DHT22;5938;47.098;15.474;2022-12-20T10:30:59;-0.90;99.90
11762;DHT22;5938;47.098;15.474;2022-12-20T10:35:20;-0.90;99.90
11762;DHT22;5938;47.098;15.474;2022-12-20T10:39:39;-0.60;99.90
11762;DHT22;5938;47.098;15.474;2022-12-20T10:43:47;-0.70;99.90
11762;DHT22;5938;47.098;15.474;2022-12-20T10:47:58;-1.00;99.90
11762;DHT22;5938;47.098;15.474;2022-12-20T10:52:07;-0.70;99.90
11762;DHT22;5938;47.098;15.474;2022-12-20T10:56:18;-0.60;99.90
11762;DHT22;5938;47.098;15.474;2022-12-20T11:00:29;-0.60;99.90
11762;DHT22;5938;47.098;15.474;2022-12-20T11:04:35;-0.30;99.90
11762;DHT22;5938;47.098;15.474;2022-12-20T11:08:39;-0.40;99.90
11762;DHT22;5938;47.098;15.474;2022-12-20T11:12:54;-0.40;99.90
11762;DHT22;5938;47.098;15.474;2022-12-20T11:17:02;-0.60;99.90
11762;DHT22;5938;47.098;15.474;2022-12-20T11:21:15;-0.60;99.90
11762;DHT22;5938;47.098;15.474;2022-12-20T11:25:38;-0.50;99.90
11762;DHT22;5938;47.098;15.474;2022-12-20T11:30:03;-0.40;99.90
11762;DHT22;5938;47.098;15.474;2022-12-20T11:34:21;-0.60;99.90
11762;DHT22;5938;47.098;15.474;2022-12-20T11:38:37;-0.90;99.90
11762;DHT22;5938;47.098;15.474;2022-12-20T11:42:54;-0.70;99.90
11762;DHT22;5938;47.098;15.474;2022-12-20T11:47:17;-0.50;99.90
11762;DHT22;5938;47.098;15.474;2022-12-20T11:51:34;-0.40;99.90
11762;DHT22;5938;47.098;15.474;2022-12-20T11:55:44;-0.60;99.90
11762;DHT22;5938;47.098;15.474;2022-12-20T11:59:52;-0.60;99.90
11762;DHT22;5938;47.098;15.474;2022-12-20T12:04:08;-0.70;99.90
11762;DHT22;5938;47.098;15.474;2022-12-20T12:08:17;-0.50;99.90
11762;DHT22;5938;47.098;15.474;2022-12-20T12:12:24;-0.80;99.90
11762;DHT22;5938;47.098;15.474;2022-12-20T12:16:33;-0.80;99.90
11762;DHT22;5938;47.098;15.474;2022-12-20T12:20:47;-0.90;99.90
11762;DHT22;5938;47.098;15.474;2022-12-20T12:24:56;-0.80;99.90
11762;DHT22;5938;47.098;15.474;2022-12-20T12:29:02;-0.90;99.90
11762;DHT22;5938;47.098;15.474;2022-12-20T12:33:12;-0.80;99.90
11762;DHT22;5938;47.098;15.474;2022-12-20T12:37:42;-0.80;99.90
11762;DHT22;5938;47.098;15.474;2022-12-20T12:42:08;-0.70;99.90
11762;DHT22;5938;47.098;15.474;2022-12-20T12:46:17;-0.90;99.90
11762;DHT22;5938;47.098;15.474;2022-12-20T12:50:24;-0.50;99.90
11762;DHT22;5938;47.098;15.474;2022-12-20T12:54:35;-0.70;99.90
11762;DHT22;5938;47.098;15.474;2022-12-20T12:58:41;-0.80;99.90
11762;DHT22;5938;47.098;15.474;2022-12-20T13:02:50;-0.90;99.90
11762;DHT22;5938;47.098;15.474;2022-12-20T13:07:00;-0.80;99.90
11762;DHT22;5938;47.098;15.474;2022-12-20T13:11:12;-0.90;99.90
11762;DHT22;5938;47.098;15.474;2022-12-20T13:16:08;-1.00;99.90
11762;DHT22;5938;47.098;15.474;2022-12-20T13:20:18;-1.00;99.90
11762;DHT22;5938;47.098;15.474;2022-12-20T13:24:34;-1.00;99.90
11762;DHT22;5938;47.098;15.474;2022-12-20T13:28:45;-1.20;99.90
11762;DHT22;5938;47.098;15.474;2022-12-20T13:37:28;-0.80;99.90
11762;DHT22;5938;47.098;15.474;2022-12-20T13:42:12;-0.90;99.90
11762;DHT22;5938;47.098;15.474;2022-12-20T13:46:21;-0.90;99.90
11762;DHT22;5938;47.098;15.474;2022-12-20T13:50:31;-1.00;99.90
11762;DHT22;5938;47.098;15.474;2022-12-20T13:54:40;-1.00;99.90
11762;DHT22;5938;47.098;15.474;2022-12-20T13:58:45;-1.20;99.90
11762;DHT22;5938;47.098;15.474;2022-12-20T14:02:49;-1.10;99.90
11762;DHT22;5938;47.098;15.474;2022-12-20T14:06:57;-1.00;99.90
11762;DHT22;5938;47.098;15.474;2022-12-20T14:11:09;-1.10;99.90
11762;DHT22;5938;47.098;15.474;2022-12-20T14:15:21;-1.20;99.90
11762;DHT22;5938;47.098;15.474;2022-12-20T14:19:25;-1.20;99.90
11762;DHT22;5938;47.098;15.474;2022-12-20T14:23:34;-1.20;99.90
11762;DHT22;5938;47.098;15.474;2022-12-20T14:27:43;-1.20;99.90
11762;DHT22;5938;47.098;15.474;2022-12-20T14:31:48;-1.30;99.90
11762;DHT22;5938;47.098;15.474;2022-12-20T14:35:52;-1.20;99.90
11762;DHT22;5938;47.098;15.474;2022-12-20T14:39:59;-1.10;99.90
11762;DHT22;5938;47.098;15.474;2022-12-20T14:44:14;-1.30;99.90
11762;DHT22;5938;47.098;15.474;2022-12-20T14:48:18;-1.40;99.90
11762;DHT22;5938;47.098;15.474;2022-12-20T14:52:28;-1.50;99.90
11762;DHT22;5938;47.098;15.474;2022-12-20T14:56:33;-1.40;99.90
11762;DHT22;5938;47.098;15.474;2022-12-20T15:00:37;-1.40;99.90
11762;DHT22;5938;47.098;15.474;2022-12-20T15:04:40;-1.60;99.90
11762;DHT22;5938;47.098;15.474;2022-12-20T15:08:44;-1.40;99.90
11762;DHT22;5938;47.098;15.474;2022-12-20T15:12:49;-1.60;99.90
11762;DHT22;5938;47.098;15.474;2022-12-20T15:16:53;-1.40;99.90
11762;DHT22;5938;47.098;15.474;2022-12-20T15:21:04;-1.40;99.90
11762;DHT22;5938;47.098;15.474;2022-12-20T15:25:15;-1.30;99.90
11762;DHT22;5938;47.098;15.474;2022-12-20T15:29:26;-1.40;99.90
11762;DHT22;5938;47.098;15.474;2022-12-20T15:33:38;-1.30;99.90
11762;DHT22;5938;47.098;15.474;2022-12-20T15:37:43;-1.30;99.90
11762;DHT22;5938;47.098;15.474;2022-12-20T15:41:48;-1.30;99.90
11762;DHT22;5938;47.098;15.474;2022-12-20T15:45:53;-1.50;99.90
11762;DHT22;5938;47.098;15.474;2022-12-20T15:49:57;-1.30;99.90
11762;DHT22;5938;47.098;15.474;2022-12-20T15:54:04;-1.30;99.90
11762;DHT22;5938;47.098;15.474;2022-12-20T15:58:08;-1.40;99.90
11762;DHT22;5938;47.098;15.474;2022-12-20T16:02:20;-1.40;99.90
11762;DHT22;5938;47.098;15.474;2022-12-20T16:06:25;-1.20;99.90
11762;DHT22;5938;47.098;15.474;2022-12-20T16:10:28;-1.00;99.90
11762;DHT22;5938;47.098;15.474;2022-12-20T16:14:31;-1.10;99.90
11762;DHT22;5938;47.098;15.474;2022-12-20T16:18:36;-1.20;99.90
11762;DHT22;5938;47.098;15.474;2022-12-20T16:22:39;-1.20;99.90
11762;DHT22;5938;47.098;15.474;2022-12-20T16:26:46;-1.10;99.90
11762;DHT22;5938;47.098;15.474;2022-12-20T16:35:31;-1.30;99.90
11762;DHT22;5938;47.098;15.474;2022-12-20T16:39:34;-1.10;99.90
11762;DHT22;5938;47.098;15.474;2022-12-20T16:43:38;-1.30;99.90
11762;DHT22;5938;47.098;15.474;2022-12-20T16:47:41;-1.00;99.90
11762;DHT22;5938;47.098;15.474;2022-12-20T16:51:47;-1.30;99.90
11762;DHT22;5938;47.098;15.474;2022-12-20T16:55:52;-1.20;99.90
11762;DHT22;5938;47.098;15.474;2022-12-20T17:00:06;-1.20;99.90
11762;DHT22;5938;47.098;15.474;2022-12-20T17:04:15;-1.20;99.90
11762;DHT22;5938;47.098;15.474;2022-12-20T17:08:28;-1.40;99.90
11762;DHT22;5938;47.098;15.474;2022-12-20T17:12:52;-1.30;99.90
11762;DHT22;5938;47.098;15.474;2022-12-20T17:16:58;-1.10;99.90
11762;DHT22;5938;47.098;15.474;2022-12-20T17:21:19;-1.10;99.90
11762;DHT22;5938;47.098;15.474;2022-12-20T17:25:34;-1.20;99.90
11762;DHT22;5938;47.098;15.474;2022-12-20T17:29:39;-1.40;99.90
11762;DHT22;5938;47.098;15.474;2022-12-20T17:34:02;-1.40;99.90
11762;DHT22;5938;47.098;15.474;2022-12-20T17:38:08;-1.20;99.90
11762;DHT22;5938;47.098;15.474;2022-12-20T17:42:18;-1.30;99.90
11762;DHT22;5938;47.098;15.474;2022-12-20T17:46:33;-1.20;99.90
11762;DHT22;5938;47.098;15.474;2022-12-20T17:50:48;-1.20;99.90
11762;DHT22;5938;47.098;15.474;2022-12-20T17:55:04;-1.20;99.90
11762;DHT22;5938;47.098;15.474;2022-12-20T17:59:12;-1.40;99.90
11762;DHT22;5938;47.098;15.474;2022-12-20T18:03:20;-1.50;99.90
11762;DHT22;5938;47.098;15.474;2022-12-20T18:07:51;-1.20;99.90
11762;DHT22;5938;47.098;15.474;2022-12-20T18:11:56;-1.30;99.90
11762;DHT22;5938;47.098;15.474;2022-12-20T18:16:11;-1.20;99.90
11762;DHT22;5938;47.098;15.474;2022-12-20T18:20:22;-1.10;99.90
11762;DHT22;5938;47.098;15.474;2022-12-20T18:24:30;-1.20;99.90
11762;DHT22;5938;47.098;15.474;2022-12-20T18:28:46;-1.10;99.90
11762;DHT22;5938;47.098;15.474;2022-12-20T18:33:01;-1.30;99.90
11762;DHT22;5938;47.098;15.474;2022-12-20T18:37:08;-1.40;99.90
11762;DHT22;5938;47.098;15.474;2022-12-20T18:41:18;-1.50;99.90
11762;DHT22;5938;47.098;15.474;2022-12-20T18:45:28;-1.30;99.90
11762;DHT22;5938;47.098;15.474;2022-12-20T18:49:36;-1.20;99.90
11762;DHT22;5938;47.098;15.474;2022-12-20T18:53:44;-1.40;99.90
11762;DHT22;5938;47.098;15.474;2022-12-20T18:57:54;-1.50;99.90
11762;DHT22;5938;47.098;15.474;2022-12-20T19:02:02;-1.20;99.90
11762;DHT22;5938;47.098;15.474;2022-12-20T19:06:25;-1.30;99.90
11762;DHT22;5938;47.098;15.474;2022-12-20T19:10:37;-1.40;99.90
11762;DHT22;5938;47.098;15.474;2022-12-20T19:14:48;-1.30;99.90
11762;DHT22;5938;47.098;15.474;2022-12-20T19:18:59;-1.30;99.90
11762;DHT22;5938;47.098;15.474;2022-12-20T19:23:12;-1.20;99.90
11762;DHT22;5938;47.098;15.474;2022-12-20T19:27:21;-1.20;99.90
11762;DHT22;5938;47.098;15.474;2022-12-20T19:31:36;-1.40;99.90
11762;DHT22;5938;47.098;15.474;2022-12-20T19:35:49;-1.30;99.90
11762;DHT22;5938;47.098;15.474;2022-12-20T19:40:00;-1.30;99.90
11762;DHT22;5938;47.098;15.474;2022-12-20T19:44:20;-1.50;99.90
11762;DHT22;5938;47.098;15.474;2022-12-20T19:48:41;-1.20;99.90
11762;DHT22;5938;47.098;15.474;2022-12-20T19:52:50;-1.40;99.90
11762;DHT22;5938;47.098;15.474;2022-12-20T19:57:02;-1.50;99.90
11762;DHT22;5938;47.098;15.474;2022-12-20T20:01:12;-1.30;99.90
11762;DHT22;5938;47.098;15.474;2022-12-20T20:05:25;-1.40;99.90
11762;DHT22;5938;47.098;15.474;2022-12-20T20:09:39;-1.30;99.90
11762;DHT22;5938;47.098;15.474;2022-12-20T20:18:34;-1.40;99.90
11762;DHT22;5938;47.098;15.474;2022-12-20T20:22:44;-1.20;99.90
11762;DHT22;5938;47.098;15.474;2022-12-20T20:26:55;-1.20;99.90
11762;DHT22;5938;47.098;15.474;2022-12-20T20:31:08;-1.30;99.90
11762;DHT22;5938;47.098;15.474;2022-12-20T20:35:17;-1.30;99.90
11762;DHT22;5938;47.098;15.474;2022-12-20T20:39:24;-1.30;99.90
11762;DHT22;5938;47.098;15.474;2022-12-20T20:43:32;-1.20;99.90
11762;DHT22;5938;47.098;15.474;2022-12-20T20:47:46;-1.20;99.90
11762;DHT22;5938;47.098;15.474;2022-12-20T20:51:52;-1.40;99.90
11762;DHT22;5938;47.098;15.474;2022-12-20T20:56:06;-1.50;99.90
11762;DHT22;5938;47.098;15.474;2022-12-20T21:00:14;-1.30;99.90
11762;DHT22;5938;47.098;15.474;2022-12-20T21:04:24;-1.20;99.90
11762;DHT22;5938;47.098;15.474;2022-12-20T21:08:38;-1.60;99.90
11762;DHT22;5938;47.098;15.474;2022-12-20T21:12:50;-1.50;99.90
11762;DHT22;5938;47.098;15.474;2022-12-20T21:17:03;-1.20;99.90
11762;DHT22;5938;47.098;15.474;2022-12-20T21:21:23;-1.40;99.90
11762;DHT22;5938;47.098;15.474;2022-12-20T21:25:34;-1.60;99.90
11762;DHT22;5938;47.098;15.474;2022-12-20T21:29:50;-1.50;99.90
11762;DHT22;5938;47.098;15.474;2022-12-20T21:33:56;-1.40;99.90
11762;DHT22;5938;47.098;15.474;2022-12-20T21:38:07;-1.40;99.90
11762;DHT22;5938;47.098;15.474;2022-12-20T21:42:22;-1.50;99.90
11762;DHT22;5938;47.098;15.474;2022-12-20T21:46:29;-1.40;99.90
11762;DHT22;5938;47.098;15.474;2022-12-20T21:50:40;-1.40;99.90
11762;DHT22;5938;47.098;15.474;2022-12-20T21:54:47;-1.50;99.90
11762;DHT22;5938;47.098;15.474;2022-12-20T21:58:55;-1.30;99.90
11762;DHT22;5938;47.098;15.474;2022-12-20T22:03:08;-1.50;99.90
11762;DHT22;5938;47.098;15.474;2022-12-20T22:07:18;-1.50;99.90
11762;DHT22;5938;47.098;15.474;2022-12-20T22:11:48;-1.40;99.90
11762;DHT22;5938;47.098;15.474;2022-12-20T22:16:14;-1.30;99.90
11762;DHT22;5938;47.098;15.474;2022-12-20T22:20:36;-1.60;99.90
11762;DHT22;5938;47.098;15.474;2022-12-20T22:25:20;-1.40;99.90
11762;DHT22;5938;47.098;15.474;2022-12-20T22:35:01;-1.60;99.90
11762;DHT22;5938;47.098;15.474;2022-12-20T22:40:01;-1.50;99.90
11762;DHT22;5938;47.098;15.474;2022-12-20T22:44:45;-1.40;99.90
11762;DHT22;5938;47.098;15.474;2022-12-20T22:49:17;-1.50;99.90
11762;DHT22;5938;47.098;15.474;2022-12-20T22:53:55;-1.30;99.90
11762;DHT22;5938;47.098;15.474;2022-12-20T22:58:07;-1.30;99.90
11762;DHT22;5938;47.098;15.474;2022-12-20T23:02:38;-1.40;99.90
11762;DHT22;5938;47.098;15.474;2022-12-20T23:06:56;-1.40;99.90
11762;DHT22;5938;47.098;15.474;2022-12-20T23:11:14;-1.60;99.90
11762;DHT22;5938;47.098;15.474;2022-12-20T23:15:53;-1.40;99.90
11762;DHT22;5938;47.098;15.474;2022-12-20T23:20:19;-1.60;99.90
11762;DHT22;5938;47.098;15.474;2022-12-20T23:24:47;-1.40;99.90
11762;DHT22;5938;47.098;15.474;2022-12-20T23:29:17;-1.40;99.90
11762;DHT22;5938;47.098;15.474;2022-12-20T23:33:35;-1.60;99.90
11762;DHT22;5938;47.098;15.474;2022-12-20T23:38:03;-1.50;99.90
11762;DHT22;5938;47.098;15.474;2022-12-20T23:42:23;-1.50;99.90
11762;DHT22;5938;47.098;15.474;2022-12-20T23:46:57;-1.30;99.90
11762;DHT22;5938;47.098;15.474;2022-12-20T23:51:24;-1.30;99.90
11762;DHT22;5938;47.098;15.474;2022-12-20T23:56:11;-1.60;99.90
